Time;durP1;ratioP1;P1;durP2;ratioP2;P2;SDS_P1;SDS_P2;PMS_P1;PMS_P2;Temp;Humidity;BMP_temperature;BMP_pressure;BME280_temperature;BME280_humidity;BME280_pressure;Samples;Min_cycle;Max_cycle;Signal;HPM_P1;HPM_P2
2021/10/14 00:02:24;;;;;;;10.80;6.20;;;;;;;;;;4993301;28;20089;-64
2021/10/14 00:04:49;;;;;;;9.75;5.40;;;;;;;;;;4993374;28;20387;-64
2021/10/14 00:07:15;;;;;;;10.38;6.20;;;;;;;;;;4992437;28;20153;-64
2021/10/14 00:09:40;;;;;;;10.45;6.45;;;;;;;;;;4993688;28;20026;-65
2021/10/14 00:12:05;;;;;;;10.02;6.55;;;;;;;;;;5002706;28;20390;-64
2021/10/14 00:14:30;;;;;;;11.40;6.93;;;;;;;;;;5013296;28;20076;-64
2021/10/14 00:16:56;;;;;;;10.80;6.80;;;;;;;;;;4999247;28;20038;-64
2021/10/14 00:19:21;;;;;;;9.63;6.25;;;;;;;;;;4997497;28;20390;-64
2021/10/14 00:21:46;;;;;;;10.98;6.60;;;;;;;;;;4997483;28;20029;-64
2021/10/14 00:24:12;;;;;;;13.15;6.57;;;;;;;;;;5012291;28;20041;-64
2021/10/14 00:26:37;;;;;;;11.27;7.25;;;;;;;;;;4997194;28;20033;-64
2021/10/14 00:29:02;;;;;;;17.92;6.93;;;;;;;;;;4997370;28;20014;-64
2021/10/14 00:31:28;;;;;;;11.15;7.32;;;;;;;;;;4997304;28;20391;-64
2021/10/14 00:33:54;;;;;;;12.05;7.88;;;;;;;;;;4996885;28;20081;-64
2021/10/14 00:36:20;;;;;;;10.88;7.13;;;;;;;;;;5012145;28;20022;-64
2021/10/14 00:38:46;;;;;;;13.43;7.68;;;;;;;;;;4997222;28;20030;-64
2021/10/14 00:41:11;;;;;;;11.90;7.03;;;;;;;;;;4997068;28;20422;-64
2021/10/14 00:43:36;;;;;;;10.18;7.13;;;;;;;;;;4997048;28;20065;-64
2021/10/14 00:46:02;;;;;;;15.88;7.18;;;;;;;;;;4996976;28;20053;-64
2021/10/14 00:48:27;;;;;;;11.45;7.50;;;;;;;;;;4996884;28;20022;-64
2021/10/14 00:50:52;;;;;;;11.82;7.18;;;;;;;;;;5011789;28;20023;-64
2021/10/14 00:53:18;;;;;;;9.63;6.90;;;;;;;;;;4996910;28;20101;-64
2021/10/14 00:55:43;;;;;;;12.07;6.80;;;;;;;;;;4996676;28;20502;-64
2021/10/14 00:58:08;;;;;;;11.13;7.07;;;;;;;;;;4996654;28;20471;-64
2021/10/14 01:00:33;;;;;;;10.98;7.68;;;;;;;;;;4996519;28;20499;-64
2021/10/14 01:02:59;;;;;;;11.05;7.25;;;;;;;;;;4996151;28;20140;-64
2021/10/14 01:05:24;;;;;;;12.85;7.32;;;;;;;;;;4996496;28;20034;-64
2021/10/14 01:07:50;;;;;;;11.23;7.15;;;;;;;;;;4996497;28;20018;-64
2021/10/14 01:10:15;;;;;;;13.48;8.10;;;;;;;;;;4996640;28;20018;-64
2021/10/14 01:12:40;;;;;;;14.05;7.43;;;;;;;;;;5010293;28;20018;-64
2021/10/14 01:15:18;;;;;;;13.25;7.90;;;;;;;;;;5016111;28;20050;-64
2021/10/14 01:17:44;;;;;;;16.02;8.20;;;;;;;;;;4976875;28;20031;-64
2021/10/14 01:20:10;;;;;;;11.88;7.43;;;;;;;;;;4976985;28;20015;-64
2021/10/14 01:22:35;;;;;;;10.43;7.15;;;;;;;;;;4976647;28;20038;-64
2021/10/14 01:25:00;;;;;;;11.88;7.30;;;;;;;;;;4976770;28;20027;-64
2021/10/14 01:27:27;;;;;;;10.80;7.03;;;;;;;;;;4975469;28;20025;-64
2021/10/14 01:29:52;;;;;;;11.85;7.20;;;;;;;;;;4975863;28;20023;-64
2021/10/14 01:32:17;;;;;;;11.02;7.55;;;;;;;;;;4976307;28;20030;-64
2021/10/14 01:34:42;;;;;;;12.95;7.10;;;;;;;;;;4976357;28;20109;-64
2021/10/14 01:37:08;;;;;;;13.13;7.18;;;;;;;;;;4976283;28;20376;-64
2021/10/14 01:39:33;;;;;;;12.70;6.63;;;;;;;;;;4976497;28;20018;-64
2021/10/14 01:41:58;;;;;;;9.73;6.32;;;;;;;;;;4976647;28;20027;-64
2021/10/14 01:44:23;;;;;;;10.40;6.20;;;;;;;;;;4976284;28;20075;-64
2021/10/14 01:46:49;;;;;;;10.15;6.75;;;;;;;;;;4976372;28;20094;-64
2021/10/14 01:49:14;;;;;;;10.07;6.32;;;;;;;;;;4976468;28;20046;-64
2021/10/14 01:51:39;;;;;;;9.77;6.13;;;;;;;;;;4976220;28;20082;-64
2021/10/14 01:54:05;;;;;;;10.65;5.97;;;;;;;;;;4992519;28;20019;-64
2021/10/14 01:56:30;;;;;;;10.63;6.10;;;;;;;;;;4995618;28;20023;-64
2021/10/14 01:58:55;;;;;;;10.52;6.32;;;;;;;;;;4995397;28;20026;-64
2021/10/14 02:01:20;;;;;;;10.13;6.65;;;;;;;;;;4995635;28;20018;-64
2021/10/14 02:03:45;;;;;;;9.00;5.68;;;;;;;;;;4994930;28;20157;-64
2021/10/14 02:06:11;;;;;;;11.05;6.47;;;;;;;;;;4995404;28;20088;-64
2021/10/14 02:08:36;;;;;;;10.57;6.70;;;;;;;;;;4995387;28;20022;-64
2021/10/14 02:11:01;;;;;;;10.00;5.88;;;;;;;;;;4996059;28;20161;-64
2021/10/14 02:13:27;;;;;;;11.40;6.85;;;;;;;;;;5014918;28;20026;-64
2021/10/14 02:15:52;;;;;;;14.77;6.80;;;;;;;;;;5014721;28;20069;-64
2021/10/14 02:18:17;;;;;;;10.35;6.82;;;;;;;;;;5014868;28;20030;-64
2021/10/14 02:20:42;;;;;;;11.25;7.07;;;;;;;;;;5013356;28;20026;-64
2021/10/14 02:23:08;;;;;;;9.95;7.30;;;;;;;;;;5014519;28;20026;-64
2021/10/14 02:25:33;;;;;;;13.95;7.80;;;;;;;;;;5014395;28;20112;-64
2021/10/14 02:27:58;;;;;;;15.43;8.77;;;;;;;;;;5014539;28;20014;-64
2021/10/14 02:30:23;;;;;;;14.77;8.00;;;;;;;;;;5014193;28;20502;-64
2021/10/14 02:32:49;;;;;;;15.57;8.15;;;;;;;;;;5014466;28;20013;-64
2021/10/14 02:35:14;;;;;;;12.88;7.85;;;;;;;;;;5014387;28;20028;-64
2021/10/14 02:37:40;;;;;;;10.27;7.35;;;;;;;;;;5014206;28;20356;-64
2021/10/14 02:40:06;;;;;;;11.70;7.68;;;;;;;;;;5013944;28;20145;-64
2021/10/14 02:42:31;;;;;;;11.80;8.43;;;;;;;;;;5014050;28;20060;-64
2021/10/14 02:44:56;;;;;;;11.57;7.55;;;;;;;;;;5013853;28;20038;-64
2021/10/14 02:47:22;;;;;;;12.57;7.25;;;;;;;;;;5014174;28;20021;-64
2021/10/14 02:49:47;;;;;;;12.05;7.95;;;;;;;;;;5013789;28;20036;-64
2021/10/14 02:52:12;;;;;;;10.70;7.13;;;;;;;;;;5014517;28;20025;-64
2021/10/14 02:54:37;;;;;;;9.20;7.13;;;;;;;;;;5013873;28;20367;-64
2021/10/14 02:57:03;;;;;;;9.75;7.07;;;;;;;;;;5014199;28;20045;-64
2021/10/14 02:59:28;;;;;;;12.15;7.40;;;;;;;;;;5013757;28;20025;-64
2021/10/14 03:01:53;;;;;;;11.68;7.05;;;;;;;;;;5013526;28;20037;-64
2021/10/14 03:04:19;;;;;;;12.32;7.95;;;;;;;;;;5014020;28;20029;-64
2021/10/14 03:06:44;;;;;;;11.07;6.90;;;;;;;;;;5013906;28;20029;-64
2021/10/14 03:09:09;;;;;;;11.18;6.93;;;;;;;;;;5014072;28;20032;-64
2021/10/14 03:11:35;;;;;;;12.07;7.85;;;;;;;;;;5008668;28;20011;-64
2021/10/14 03:14:00;;;;;;;11.93;8.52;;;;;;;;;;4994289;28;20019;-64
2021/10/14 03:16:25;;;;;;;12.73;7.53;;;;;;;;;;4993993;28;20029;-64
2021/10/14 03:18:52;;;;;;;11.35;7.65;;;;;;;;;;4993931;28;20022;-64
2021/10/14 03:21:17;;;;;;;12.75;7.53;;;;;;;;;;4993987;28;20148;-64
2021/10/14 03:23:42;;;;;;;11.10;7.20;;;;;;;;;;4993788;28;20101;-64
2021/10/14 03:26:08;;;;;;;15.27;8.48;;;;;;;;;;4994301;28;20468;-64
2021/10/14 03:28:33;;;;;;;13.32;7.50;;;;;;;;;;4994000;28;20072;-64
2021/10/14 03:30:58;;;;;;;14.45;8.05;;;;;;;;;;4993901;28;20029;-64
2021/10/14 03:33:24;;;;;;;14.10;8.15;;;;;;;;;;4993916;28;20050;-64
2021/10/14 03:35:49;;;;;;;11.05;7.57;;;;;;;;;;4993843;28;20487;-64
2021/10/14 03:38:14;;;;;;;13.63;8.65;;;;;;;;;;4993801;28;20030;-64
2021/10/14 03:40:40;;;;;;;13.05;7.50;;;;;;;;;;4992626;28;20022;-64
2021/10/14 03:43:05;;;;;;;13.48;8.90;;;;;;;;;;4994101;28;20126;-64
2021/10/14 03:45:31;;;;;;;12.80;8.32;;;;;;;;;;4994157;28;20477;-64
2021/10/14 03:47:56;;;;;;;14.57;8.50;;;;;;;;;;4993869;28;20018;-65
2021/10/14 03:50:22;;;;;;;13.80;9.27;;;;;;;;;;4993805;28;20064;-64
2021/10/14 03:52:47;;;;;;;15.02;8.80;;;;;;;;;;4995838;28;20014;-64
2021/10/14 03:55:12;;;;;;;13.70;8.38;;;;;;;;;;4998034;28;20027;-64
2021/10/14 03:57:37;;;;;;;15.02;8.90;;;;;;;;;;4997812;28;20027;-65
2021/10/14 04:00:04;;;;;;;14.52;8.63;;;;;;;;;;4997433;28;20022;-64
2021/10/14 04:02:29;;;;;;;14.32;9.70;;;;;;;;;;4997424;28;20070;-64
2021/10/14 04:04:54;;;;;;;17.02;9.88;;;;;;;;;;4997639;28;20042;-64
2021/10/14 04:07:20;;;;;;;13.98;9.13;;;;;;;;;;4997731;28;20025;-64
2021/10/14 04:09:45;;;;;;;13.90;9.25;;;;;;;;;;4997639;28;20081;-64
2021/10/14 04:12:10;;;;;;;14.63;9.57;;;;;;;;;;5007028;28;20041;-65
2021/10/14 04:14:35;;;;;;;13.02;8.68;;;;;;;;;;5017047;28;20022;-64
2021/10/14 04:17:01;;;;;;;14.77;9.43;;;;;;;;;;5017035;28;20124;-64
2021/10/14 04:19:26;;;;;;;19.65;10.05;;;;;;;;;;5016974;28;20022;-64
2021/10/14 04:21:52;;;;;;;14.68;8.60;;;;;;;;;;5016749;28;20017;-64
2021/10/14 04:24:18;;;;;;;15.85;9.90;;;;;;;;;;5016860;28;20036;-63
2021/10/14 04:26:44;;;;;;;14.63;10.20;;;;;;;;;;5017063;28;20101;-64
2021/10/14 04:29:09;;;;;;;17.90;10.48;;;;;;;;;;5017323;28;20101;-64
2021/10/14 04:31:35;;;;;;;16.98;10.88;;;;;;;;;;5016988;28;20048;-64
2021/10/14 04:34:00;;;;;;;20.13;9.57;;;;;;;;;;5017371;28;20070;-64
2021/10/14 04:36:25;;;;;;;17.27;9.80;;;;;;;;;;5016959;28;20100;-64
2021/10/14 04:38:53;;;;;;;15.98;10.73;;;;;;;;;;5016365;28;20097;-64
2021/10/14 04:41:18;;;;;;;14.82;10.60;;;;;;;;;;5015220;28;20402;-64
2021/10/14 04:43:43;;;;;;;16.48;9.52;;;;;;;;;;5016141;28;20022;-64
2021/10/14 04:46:08;;;;;;;13.32;9.65;;;;;;;;;;5016926;28;20355;-64
2021/10/14 04:48:34;;;;;;;16.15;10.70;;;;;;;;;;5016588;28;20065;-64
2021/10/14 04:50:59;;;;;;;15.25;9.98;;;;;;;;;;5016095;28;20041;-64
2021/10/14 04:53:24;;;;;;;16.45;10.45;;;;;;;;;;5016347;28;20421;-64
2021/10/14 04:55:49;;;;;;;15.48;9.95;;;;;;;;;;5016122;28;20022;-65
2021/10/14 04:58:15;;;;;;;17.20;9.73;;;;;;;;;;5016098;28;20424;-64
2021/10/14 05:00:40;;;;;;;18.02;10.13;;;;;;;;;;5016138;28;20014;-64
2021/10/14 05:03:05;;;;;;;40.53;13.30;;;;;;;;;;5015067;28;20049;-64
2021/10/14 05:05:30;;;;;;;17.33;10.07;;;;;;;;;;5015502;28;20034;-64
2021/10/14 05:07:56;;;;;;;12.60;8.77;;;;;;;;;;5011930;28;20018;-64
2021/10/14 05:10:21;;;;;;;13.20;9.05;;;;;;;;;;4996488;28;20018;-64
2021/10/14 05:12:46;;;;;;;14.57;9.43;;;;;;;;;;4996126;28;20498;-64
2021/10/14 05:15:12;;;;;;;15.18;9.00;;;;;;;;;;4996429;28;20026;-64
2021/10/14 05:17:37;;;;;;;13.27;8.93;;;;;;;;;;4996352;28;20022;-64
2021/10/14 05:20:04;;;;;;;15.77;9.07;;;;;;;;;;4995782;28;20459;-64
2021/10/14 05:22:29;;;;;;;13.73;8.95;;;;;;;;;;4995992;28;20023;-64
2021/10/14 05:24:55;;;;;;;18.02;9.57;;;;;;;;;;4996150;28;20037;-65
2021/10/14 05:27:20;;;;;;;11.73;7.97;;;;;;;;;;4995774;28;20090;-64
2021/10/14 05:29:45;;;;;;;12.52;8.77;;;;;;;;;;4995281;28;20375;-64
2021/10/14 05:32:10;;;;;;;11.88;8.27;;;;;;;;;;4995153;28;20530;-64
2021/10/14 05:34:36;;;;;;;14.93;9.07;;;;;;;;;;5010407;28;20081;-64
2021/10/14 05:37:02;;;;;;;17.35;9.13;;;;;;;;;;4995494;28;20030;-65
2021/10/14 05:39:27;;;;;;;14.23;8.82;;;;;;;;;;4993932;28;20019;-64
2021/10/14 05:41:52;;;;;;;12.88;8.48;;;;;;;;;;4995447;28;20025;-64
2021/10/14 05:44:18;;;;;;;13.95;9.82;;;;;;;;;;4995379;28;20035;-64
2021/10/14 05:46:43;;;;;;;14.50;8.82;;;;;;;;;;4995111;28;20033;-64
2021/10/14 05:49:08;;;;;;;13.30;8.40;;;;;;;;;;4994502;28;20023;-64
2021/10/14 05:51:33;;;;;;;12.98;9.23;;;;;;;;;;4995092;28;20026;-64
2021/10/14 05:54:00;;;;;;;17.20;12.48;;;;;;;;;;4990964;28;20030;-64
2021/10/14 05:56:25;;;;;;;14.65;9.70;;;;;;;;;;4986544;28;20030;-64
2021/10/14 05:58:51;;;;;;;14.18;8.38;;;;;;;;;;4985726;28;20376;-64
2021/10/14 06:01:16;;;;;;;13.02;8.63;;;;;;;;;;4982206;28;20025;-64
2021/10/14 06:03:42;;;;;;;12.90;8.50;;;;;;;;;;4987595;28;20557;-64
2021/10/14 06:06:07;;;;;;;15.00;9.57;;;;;;;;;;4986957;28;20023;-65
2021/10/14 06:08:32;;;;;;;13.80;8.68;;;;;;;;;;4989984;28;20033;-64
2021/10/14 06:10:57;;;;;;;13.70;8.73;;;;;;;;;;4983555;28;20031;-65
2021/10/14 06:13:22;;;;;;;17.77;9.43;;;;;;;;;;4987863;28;20394;-65
2021/10/14 06:15:48;;;;;;;14.05;8.38;;;;;;;;;;4992191;28;20061;-65
2021/10/14 06:18:13;;;;;;;16.05;8.57;;;;;;;;;;4987832;28;20022;-65
2021/10/14 06:20:38;;;;;;;12.20;8.40;;;;;;;;;;4985729;28;20042;-66
2021/10/14 06:23:06;;;;;;;12.88;8.10;;;;;;;;;;4975462;28;20027;-66
2021/10/14 06:25:31;;;;;;;13.35;7.63;;;;;;;;;;4988670;28;20065;-63
2021/10/14 06:27:56;;;;;;;10.98;8.02;;;;;;;;;;4988835;28;20463;-63
2021/10/14 06:30:21;;;;;;;9.95;6.88;;;;;;;;;;4986152;28;20018;-63
2021/10/14 06:32:47;;;;;;;12.02;7.80;;;;;;;;;;4987856;28;20025;-61
2021/10/14 06:35:12;;;;;;;11.10;7.07;;;;;;;;;;4998202;28;20045;-62
2021/10/14 06:37:37;;;;;;;19.33;9.02;;;;;;;;;;4993427;28;20022;-62
2021/10/14 06:40:03;;;;;;;12.93;7.63;;;;;;;;;;4993066;28;20022;-62
2021/10/14 06:42:28;;;;;;;11.90;8.25;;;;;;;;;;4992512;28;20029;-63
2021/10/14 06:44:53;;;;;;;13.80;8.32;;;;;;;;;;4991690;28;20113;-62
2021/10/14 06:47:18;;;;;;;13.38;8.82;;;;;;;;;;4986914;28;20015;-64
2021/10/14 06:49:48;;;;;;;12.73;7.72;;;;;;;;;;4985533;28;20026;-63
2021/10/14 06:52:13;;;;;;;11.73;7.68;;;;;;;;;;4992574;28;20030;-60
2021/10/14 06:54:39;;;;;;;10.93;7.45;;;;;;;;;;4992105;28;20014;-62
2021/10/14 06:57:05;;;;;;;12.48;7.90;;;;;;;;;;4990153;28;20026;-62
2021/10/14 06:59:31;;;;;;;12.07;7.63;;;;;;;;;;4992914;28;20034;-61
2021/10/14 07:01:57;;;;;;;11.30;7.18;;;;;;;;;;4993185;28;20034;-62
2021/10/14 07:04:22;;;;;;;10.75;7.28;;;;;;;;;;4993207;28;20049;-63
2021/10/14 07:06:48;;;;;;;10.30;6.70;;;;;;;;;;4991951;28;20391;-66
2021/10/14 07:09:13;;;;;;;8.80;5.75;;;;;;;;;;4992466;28;20054;-63
2021/10/14 07:11:43;;;;;;;11.60;6.80;;;;;;;;;;4987222;28;20050;-62
2021/10/14 07:14:09;;;;;;;12.95;7.35;;;;;;;;;;4999365;28;20026;-62
2021/10/14 07:16:34;;;;;;;17.55;7.45;;;;;;;;;;4996699;28;20026;-65
2021/10/14 07:19:00;;;;;;;9.88;6.90;;;;;;;;;;4993637;28;20025;-66
2021/10/14 07:21:25;;;;;;;9.45;6.40;;;;;;;;;;4990257;28;20019;-72
2021/10/14 07:23:50;;;;;;;8.55;5.85;;;;;;;;;;4991651;28;20022;-66
2021/10/14 07:26:15;;;;;;;12.15;6.40;;;;;;;;;;4993388;28;20126;-64
2021/10/14 07:28:41;;;;;;;9.30;6.82;;;;;;;;;;4991795;28;20033;-63
2021/10/14 07:31:06;;;;;;;8.57;5.57;;;;;;;;;;4992328;28;20025;-67
2021/10/14 07:33:31;;;;;;;9.73;6.07;;;;;;;;;;4992949;28;20018;-64
2021/10/14 07:35:56;;;;;;;8.80;6.00;;;;;;;;;;4991740;28;20142;-65
2021/10/14 07:38:22;;;;;;;14.05;6.32;;;;;;;;;;4991728;28;20046;-66
2021/10/14 07:40:47;;;;;;;19.75;6.72;;;;;;;;;;4991976;28;20022;-66
2021/10/14 07:43:14;;;;;;;30.05;8.13;;;;;;;;;;4991851;28;20027;-65
2021/10/14 07:45:40;;;;;;;10.98;5.57;;;;;;;;;;4989534;28;20030;-65
2021/10/14 07:48:07;;;;;;;11.13;6.15;;;;;;;;;;4992303;28;20022;-66
2021/10/14 07:50:33;;;;;;;8.15;5.68;;;;;;;;;;4993022;28;20030;-65
2021/10/14 07:52:58;;;;;;;10.77;5.80;;;;;;;;;;4992652;28;20033;-64
2021/10/14 07:55:24;;;;;;;9.10;6.32;;;;;;;;;;4988269;28;20014;-66
2021/10/14 07:57:49;;;;;;;9.77;5.55;;;;;;;;;;4986258;28;20070;-63
2021/10/14 08:00:14;;;;;;;7.53;5.38;;;;;;;;;;4989198;28;20101;-65
2021/10/14 08:02:39;;;;;;;8.50;5.88;;;;;;;;;;4988887;28;20051;-66
2021/10/14 08:05:05;;;;;;;9.80;5.18;;;;;;;;;;4991372;28;20030;-63
2021/10/14 08:07:30;;;;;;;9.43;5.18;;;;;;;;;;4985534;28;20019;-64
2021/10/14 08:09:56;;;;;;;7.82;5.10;;;;;;;;;;4991168;28;20022;-64
2021/10/14 08:12:22;;;;;;;13.15;5.60;;;;;;;;;;4988574;28;20025;-64
2021/10/14 08:14:48;;;;;;;8.55;5.32;;;;;;;;;;4992125;28;20022;-64
2021/10/14 08:17:13;;;;;;;8.82;5.75;;;;;;;;;;4985936;28;20054;-63
2021/10/14 08:19:39;;;;;;;8.43;5.40;;;;;;;;;;4985341;28;20458;-63
2021/10/14 08:22:04;;;;;;;8.13;6.18;;;;;;;;;;4985935;28;20026;-63
2021/10/14 08:24:35;;;;;;;12.10;6.18;;;;;;;;;;4984538;28;20069;-64
2021/10/14 08:27:00;;;;;;;8.40;6.38;;;;;;;;;;4982643;28;20030;-64
2021/10/14 08:29:26;;;;;;;8.48;5.45;;;;;;;;;;4992072;28;20041;-65
2021/10/14 08:31:52;;;;;;;8.95;6.30;;;;;;;;;;4991430;28;20027;-66
2021/10/14 08:34:17;;;;;;;8.30;5.72;;;;;;;;;;4991972;28;20019;-65
2021/10/14 08:36:43;;;;;;;8.77;6.47;;;;;;;;;;4983236;28;20106;-66
2021/10/14 08:39:08;;;;;;;9.75;6.15;;;;;;;;;;4996939;28;20017;-64
2021/10/14 08:41:33;;;;;;;10.63;6.95;;;;;;;;;;4979838;28;20011;-65
2021/10/14 08:43:59;;;;;;;9.15;6.28;;;;;;;;;;4992927;28;20101;-65
2021/10/14 08:46:24;;;;;;;11.80;6.78;;;;;;;;;;4989923;28;20026;-65
2021/10/14 08:48:50;;;;;;;10.18;6.90;;;;;;;;;;4992815;28;20537;-65
2021/10/14 08:51:15;;;;;;;11.18;6.13;;;;;;;;;;4985809;28;20400;-64
2021/10/14 08:53:40;;;;;;;10.63;7.00;;;;;;;;;;4994781;28;20344;-64
2021/10/14 08:56:06;;;;;;;10.55;6.20;;;;;;;;;;4986115;28;20022;-64
2021/10/14 08:58:31;;;;;;;14.02;6.47;;;;;;;;;;4977873;28;20045;-66
2021/10/14 09:01:07;;;;;;;12.07;6.85;;;;;;;;;;4995069;28;20010;-64
2021/10/14 09:03:34;;;;;;;9.25;5.50;;;;;;;;;;4993427;28;20046;-63
2021/10/14 09:06:00;;;;;;;9.10;6.40;;;;;;;;;;4984459;28;20042;-63
2021/10/14 09:08:32;;;;;;;10.15;6.95;;;;;;;;;;4991190;28;20077;-64
2021/10/14 09:11:22;;;;;;;9.38;6.22;;;;;;;;;;4992963;28;20082;-62
2021/10/14 09:13:49;;;;;;;10.27;7.20;;;;;;;;;;4988251;28;20038;-61
2021/10/14 09:16:19;;;;;;;11.57;7.20;;;;;;;;;;4988738;28;20068;-63
2021/10/14 09:18:44;;;;;;;9.50;6.65;;;;;;;;;;4994834;28;20124;-64
2021/10/14 09:21:19;;;;;;;13.95;7.55;;;;;;;;;;4989803;28;20534;-64
2021/10/14 09:23:44;;;;;;;11.57;7.18;;;;;;;;;;4994634;28;20379;-64
2021/10/14 09:26:09;;;;;;;11.45;7.18;;;;;;;;;;4994285;28;20034;-64
2021/10/14 09:28:35;;;;;;;12.05;7.88;;;;;;;;;;4995008;28;20356;-70
2021/10/14 09:31:01;;;;;;;12.27;8.05;;;;;;;;;;4993929;28;20029;-68
2021/10/14 09:33:29;;;;;;;10.90;7.63;;;;;;;;;;4991673;28;20025;-64
2021/10/14 09:35:55;;;;;;;13.07;7.47;;;;;;;;;;4992387;28;20023;-63
2021/10/14 09:38:33;;;;;;;13.32;7.70;;;;;;;;;;4994017;28;20022;-70
2021/10/14 09:41:01;;;;;;;13.50;8.23;;;;;;;;;;4991778;28;20025;-70
2021/10/14 09:43:27;;;;;;;12.97;7.33;;;;;;;;;;4993721;28;20105;-68
2021/10/14 09:45:52;;;;;;;15.25;8.02;;;;;;;;;;4989638;28;20507;-62
2021/10/14 09:48:18;;;;;;;12.82;7.72;;;;;;;;;;4990816;28;20030;-63
2021/10/14 09:50:45;;;;;;;13.60;7.60;;;;;;;;;;4989380;28;20387;-66
2021/10/14 09:53:12;;;;;;;12.60;7.80;;;;;;;;;;4988235;28;20380;-68
2021/10/14 09:55:37;;;;;;;13.13;8.07;;;;;;;;;;4993801;28;20465;-70
2021/10/14 09:58:02;;;;;;;10.75;6.80;;;;;;;;;;4992541;28;20018;-70
2021/10/14 10:00:31;;;;;;;12.23;8.13;;;;;;;;;;4993823;28;20057;-71
2021/10/14 10:02:58;;;;;;;11.05;7.40;;;;;;;;;;4993078;28;20416;-70
2021/10/14 10:05:24;;;;;;;12.30;7.65;;;;;;;;;;4993710;28;20050;-69
2021/10/14 10:07:50;;;;;;;12.77;7.53;;;;;;;;;;4982897;28;20053;-69
2021/10/14 10:10:17;;;;;;;13.18;8.32;;;;;;;;;;4987256;28;20026;-70
2021/10/14 10:12:43;;;;;;;12.75;7.82;;;;;;;;;;4993317;28;20069;-70
2021/10/14 10:15:08;;;;;;;11.68;7.80;;;;;;;;;;4991681;28;20502;-70
2021/10/14 10:17:35;;;;;;;11.73;7.75;;;;;;;;;;4983539;28;20475;-69
2021/10/14 10:20:00;;;;;;;13.98;8.00;;;;;;;;;;4996683;28;20038;-69
2021/10/14 10:22:35;;;;;;;9.55;6.95;;;;;;;;;;5013514;28;20029;-70
2021/10/14 10:25:18;;;;;;;10.65;7.30;;;;;;;;;;5012440;28;20506;-67
2021/10/14 10:27:44;;;;;;;11.43;7.47;;;;;;;;;;4983196;28;20034;-69
2021/10/14 10:30:11;;;;;;;12.00;8.05;;;;;;;;;;4993683;28;20482;-70
2021/10/14 10:32:46;;;;;;;14.88;8.07;;;;;;;;;;4993497;28;20553;-70
2021/10/14 10:35:32;;;;;;;11.98;7.78;;;;;;;;;;4992103;28;20032;-69
2021/10/14 10:38:11;;;;;;;14.10;8.45;;;;;;;;;;4988837;28;20018;-71
2021/10/14 10:40:40;;;;;;;11.18;7.78;;;;;;;;;;4994114;28;20049;-70
2021/10/14 10:43:08;;;;;;;11.27;7.60;;;;;;;;;;4993581;28;20054;-71
2021/10/14 10:45:44;;;;;;;14.20;8.00;;;;;;;;;;4993580;28;20038;-66
2021/10/14 10:48:10;;;;;;;14.65;8.88;;;;;;;;;;4984797;28;20031;-70
2021/10/14 10:50:43;;;;;;;12.02;8.55;;;;;;;;;;4974415;28;20522;-69
2021/10/14 10:53:08;;;;;;;10.80;8.25;;;;;;;;;;4973193;28;20479;-66
2021/10/14 10:55:36;;;;;;;12.57;7.97;;;;;;;;;;4991950;28;20050;-68
2021/10/14 10:58:07;;;;;;;11.48;7.50;;;;;;;;;;4983678;28;20264;-70
2021/10/14 11:00:32;;;;;;;14.35;8.07;;;;;;;;;;4989169;28;20023;-67
2021/10/14 11:03:08;;;;;;;12.18;7.95;;;;;;;;;;4989595;28;20420;-69
2021/10/14 11:05:53;;;;;;;12.98;7.93;;;;;;;;;;4985300;28;20022;-71
2021/10/14 11:08:19;;;;;;;11.65;7.78;;;;;;;;;;4983507;28;20026;-68
2021/10/14 11:10:46;;;;;;;11.27;7.40;;;;;;;;;;4981382;28;20114;-66
2021/10/14 11:13:11;;;;;;;13.65;7.32;;;;;;;;;;4987295;28;20101;-66
2021/10/14 11:15:36;;;;;;;11.02;7.47;;;;;;;;;;4978142;28;20105;-69
2021/10/14 11:18:03;;;;;;;13.75;7.80;;;;;;;;;;4990380;28;20022;-70
2021/10/14 11:20:28;;;;;;;11.55;7.78;;;;;;;;;;4986224;28;20022;-66
2021/10/14 11:23:00;;;;;;;12.20;7.28;;;;;;;;;;4991930;28;20383;-68
2021/10/14 11:25:25;;;;;;;13.00;7.90;;;;;;;;;;4987839;28;20049;-67
2021/10/14 11:28:04;;;;;;;11.10;7.80;;;;;;;;;;4981418;28;20023;-68
2021/10/14 11:30:38;;;;;;;12.57;7.78;;;;;;;;;;4991197;28;20304;-67
2021/10/14 11:33:10;;;;;;;12.18;7.45;;;;;;;;;;4991017;28;20544;-68
2021/10/14 11:35:36;;;;;;;12.05;7.30;;;;;;;;;;4991194;28;20550;-71
2021/10/14 11:38:08;;;;;;;10.80;7.03;;;;;;;;;;4990330;28;20165;-68
2021/10/14 11:40:34;;;;;;;10.38;7.25;;;;;;;;;;4992098;28;20033;-68
2021/10/14 11:43:00;;;;;;;10.45;7.03;;;;;;;;;;4991449;28;20035;-69
2021/10/14 11:45:25;;;;;;;10.57;6.68;;;;;;;;;;4991650;28;20049;-68
2021/10/14 11:47:50;;;;;;;11.10;7.53;;;;;;;;;;4991371;28;20059;-68
2021/10/14 11:50:16;;;;;;;14.43;7.55;;;;;;;;;;4990914;28;20025;-66
2021/10/14 11:52:42;;;;;;;11.15;6.80;;;;;;;;;;4991656;28;20026;-71
2021/10/14 11:55:08;;;;;;;10.70;7.38;;;;;;;;;;4992230;28;20471;-69
2021/10/14 11:57:33;;;;;;;8.65;6.00;;;;;;;;;;4992939;28;20022;-70
2021/10/14 11:59:59;;;;;;;8.13;6.07;;;;;;;;;;4992948;28;20144;-69
2021/10/14 12:02:25;;;;;;;10.95;6.75;;;;;;;;;;4992660;28;20571;-70
2021/10/14 12:04:53;;;;;;;11.15;6.22;;;;;;;;;;4992449;28;20030;-70
2021/10/14 12:07:19;;;;;;;8.75;6.60;;;;;;;;;;4991969;28;20041;-68
2021/10/14 12:09:44;;;;;;;9.52;6.20;;;;;;;;;;4992600;28;20545;-68
2021/10/14 12:12:12;;;;;;;9.77;6.45;;;;;;;;;;4992753;28;20023;-68
2021/10/14 12:14:38;;;;;;;8.15;5.70;;;;;;;;;;4996183;28;20041;-68
2021/10/14 12:17:04;;;;;;;8.65;5.90;;;;;;;;;;4996989;28;20026;-69
2021/10/14 12:19:35;;;;;;;8.73;5.97;;;;;;;;;;5014579;28;20478;-66
2021/10/14 12:22:04;;;;;;;8.18;5.72;;;;;;;;;;5016131;28;20256;-66
2021/10/14 12:24:31;;;;;;;9.00;6.07;;;;;;;;;;5010800;28;20034;-67
2021/10/14 12:26:57;;;;;;;8.85;5.80;;;;;;;;;;4994181;28;20161;-68
2021/10/14 12:29:24;;;;;;;12.70;5.93;;;;;;;;;;4989124;28;20030;-67
2021/10/14 12:32:02;;;;;;;9.55;6.50;;;;;;;;;;4991038;28;20026;-69
2021/10/14 12:34:37;;;;;;;9.93;5.97;;;;;;;;;;4990581;28;20505;-69
2021/10/14 12:37:06;;;;;;;8.93;5.82;;;;;;;;;;4992701;28;20015;-70
2021/10/14 12:39:31;;;;;;;9.93;6.35;;;;;;;;;;4995575;28;20030;-70
2021/10/14 12:41:57;;;;;;;10.00;5.40;;;;;;;;;;4995383;28;20038;-71
2021/10/14 12:44:35;;;;;;;11.00;6.68;;;;;;;;;;4995061;28;20026;-70
2021/10/14 12:47:06;;;;;;;10.15;6.28;;;;;;;;;;4982619;28;20030;-70
2021/10/14 12:51:57;;;;;;;10.02;6.82;;;;;;;;;;4993287;28;20550;-69
2021/10/14 12:54:23;;;;;;;9.55;6.63;;;;;;;;;;4994632;28;20019;-70
2021/10/14 12:56:50;;;;;;;16.50;6.93;;;;;;;;;;4985957;28;20038;-69
2021/10/14 12:59:16;;;;;;;10.50;5.88;;;;;;;;;;4981156;28;20037;-69
2021/10/14 13:01:42;;;;;;;11.30;7.00;;;;;;;;;;4983271;28;20018;-68
2021/10/14 13:04:08;;;;;;;9.35;6.80;;;;;;;;;;4989817;28;20041;-69
2021/10/14 13:06:33;;;;;;;9.13;5.85;;;;;;;;;;4988237;28;20026;-69
2021/10/14 13:09:01;;;;;;;8.23;6.15;;;;;;;;;;4992729;28;20114;-68
2021/10/14 13:11:31;;;;;;;8.65;6.32;;;;;;;;;;4989140;28;20026;-68
2021/10/14 13:13:57;;;;;;;8.38;5.97;;;;;;;;;;4986048;28;20122;-69
2021/10/14 13:16:23;;;;;;;9.00;5.80;;;;;;;;;;4987775;28;20388;-70
2021/10/14 13:18:48;;;;;;;8.85;6.15;;;;;;;;;;4989259;28;20026;-69
2021/10/14 13:21:13;;;;;;;9.10;6.22;;;;;;;;;;4983298;28;20423;-64
2021/10/14 13:23:39;;;;;;;9.15;6.13;;;;;;;;;;4987202;28;20011;-64
2021/10/14 13:26:04;;;;;;;11.05;6.95;;;;;;;;;;4985345;28;20038;-66
2021/10/14 13:28:30;;;;;;;9.05;6.30;;;;;;;;;;4979337;28;20021;-66
2021/10/14 13:30:59;;;;;;;8.73;6.20;;;;;;;;;;4975080;28;20376;-65
2021/10/14 13:33:25;;;;;;;9.65;6.38;;;;;;;;;;4993937;28;20394;-65
2021/10/14 13:35:50;;;;;;;8.18;5.95;;;;;;;;;;5014486;28;20033;-66
2021/10/14 13:38:18;;;;;;;10.63;6.50;;;;;;;;;;4998831;28;20117;-67
2021/10/14 13:40:48;;;;;;;10.27;6.88;;;;;;;;;;4993104;28;20041;-67
2021/10/14 13:43:17;;;;;;;12.05;7.13;;;;;;;;;;4993526;28;20388;-68
2021/10/14 13:45:43;;;;;;;10.68;6.85;;;;;;;;;;4994565;28;20042;-67
2021/10/14 13:48:08;;;;;;;9.80;6.75;;;;;;;;;;4995046;28;20026;-69
2021/10/14 13:50:33;;;;;;;11.27;6.90;;;;;;;;;;4999046;28;20021;-67
2021/10/14 13:52:59;;;;;;;10.38;7.28;;;;;;;;;;4991902;28;20018;-65
2021/10/14 13:55:24;;;;;;;10.05;6.90;;;;;;;;;;4990744;28;20018;-65
2021/10/14 13:57:50;;;;;;;11.32;6.90;;;;;;;;;;4993947;28;20072;-67
2021/10/14 14:00:17;;;;;;;13.55;7.10;;;;;;;;;;4982124;28;20023;-67
2021/10/14 14:02:42;;;;;;;11.95;7.40;;;;;;;;;;4993880;28;20050;-68
2021/10/14 14:05:07;;;;;;;10.70;7.25;;;;;;;;;;4984888;28;20034;-63
2021/10/14 14:07:32;;;;;;;11.30;6.72;;;;;;;;;;4992542;28;20110;-67
2021/10/14 14:09:58;;;;;;;9.98;7.18;;;;;;;;;;4994086;28;20029;-68
2021/10/14 14:12:25;;;;;;;12.32;7.43;;;;;;;;;;4993095;28;20022;-64
2021/10/14 14:14:50;;;;;;;13.02;7.93;;;;;;;;;;4993425;28;20045;-65
2021/10/14 14:17:15;;;;;;;13.10;7.68;;;;;;;;;;4994487;28;20022;-64
2021/10/14 14:19:40;;;;;;;14.38;8.48;;;;;;;;;;4994293;28;20018;-62
2021/10/14 14:22:09;;;;;;;10.20;7.30;;;;;;;;;;4994164;28;20035;-64
2021/10/14 14:24:35;;;;;;;11.70;8.88;;;;;;;;;;4994027;28;20039;-63
2021/10/14 14:27:00;;;;;;;13.77;8.63;;;;;;;;;;4994384;28;20529;-63
2021/10/14 14:29:25;;;;;;;12.85;8.18;;;;;;;;;;4992987;28;20015;-63